createdAt,value
2022-09-14T00:01:25.199Z,64.54
2022-09-14T00:03:59.581Z,63.89
2022-09-14T00:06:27.438Z,64.02
2022-09-14T00:08:55.397Z,64.04
2022-09-14T00:11:25.249Z,63.85
2022-09-14T00:13:53.087Z,64.13
2022-09-14T00:16:27.081Z,64.51
2022-09-14T00:18:56.243Z,64.28
2022-09-14T00:21:24.225Z,63.99
2022-09-14T00:23:51.050Z,64.25
2022-09-14T00:26:20.660Z,64.53
2022-09-14T00:28:50.539Z,64.19
2022-09-14T00:31:18.579Z,64.33
2022-09-14T00:33:48.287Z,64.32
2022-09-14T00:36:18.267Z,64.46
2022-09-14T00:38:45.929Z,64.33
2022-09-14T00:41:18.458Z,64.50
2022-09-14T00:44:02.495Z,65.20
2022-09-14T00:46:31.713Z,64.80
2022-09-14T00:49:02.299Z,65.02
2022-09-14T00:51:31.790Z,64.62
2022-09-14T00:53:59.047Z,64.43
2022-09-14T00:56:26.407Z,64.85
2022-09-14T00:58:55.328Z,64.72
2022-09-14T01:01:22.720Z,64.83
2022-09-14T01:03:49.528Z,64.81
2022-09-14T01:06:48.285Z,65.10
2022-09-14T01:09:35.954Z,65.38
2022-09-14T01:12:14.388Z,64.58
2022-09-14T01:15:02.376Z,65.47
2022-09-14T01:18:01.492Z,65.31
2022-09-14T01:20:35.637Z,65.11
2022-09-14T01:23:41.880Z,65.54
2022-09-14T01:26:40.786Z,65.61
2022-09-14T01:29:26.629Z,65.51
2022-09-14T01:32:04.295Z,66.06
2022-09-14T01:34:37.520Z,65.26
2022-09-14T01:37:14.325Z,65.79
2022-09-14T01:39:46.260Z,65.04
2022-09-14T01:42:14.851Z,65.31
2022-09-14T01:44:45.422Z,65.51
2022-09-14T01:47:19.917Z,65.27
2022-09-14T01:49:52.611Z,65.50
2022-09-14T01:52:24.242Z,65.65
2022-09-14T01:55:01.483Z,66.06
2022-09-14T01:57:37.381Z,65.45
2022-09-14T02:00:10.811Z,65.92
2022-09-14T02:02:46.753Z,65.57
2022-09-14T02:05:21.168Z,65.59
2022-09-14T02:07:47.812Z,65.54
2022-09-14T02:10:16.478Z,65.21
2022-09-14T02:12:43.891Z,65.72
2022-09-14T02:15:12.978Z,65.58
2022-09-14T02:17:40.126Z,65.67
2022-09-14T02:20:12.054Z,66.00
2022-09-14T02:22:38.799Z,65.26
2022-09-14T02:25:05.794Z,65.58
2022-09-14T02:27:32.438Z,65.66
2022-09-14T02:29:59.420Z,65.82
2022-09-14T02:32:31.487Z,65.91
2022-09-14T02:35:23.677Z,65.75
2022-09-14T02:38:09.620Z,66.14
2022-09-14T02:40:50.243Z,66.26
2022-09-14T02:43:40.353Z,65.88
2022-09-14T02:46:12.673Z,66.10
2022-09-14T02:48:48.557Z,66.19
2022-09-14T02:51:30.239Z,66.78
2022-09-14T02:54:18.539Z,67.18
2022-09-14T02:56:45.718Z,66.36
2022-09-14T02:59:12.691Z,66.23
2022-09-14T03:01:39.586Z,66.42
2022-09-14T03:04:06.270Z,66.33
2022-09-14T03:06:32.850Z,66.40
2022-09-14T03:08:59.444Z,66.43
2022-09-14T03:11:26.235Z,66.43
2022-09-14T03:13:53.893Z,66.46
2022-09-14T03:16:21.381Z,65.91
2022-09-14T03:18:48.227Z,66.47
2022-09-14T03:21:16.640Z,66.66
2022-09-14T03:23:48.152Z,67.05
2022-09-14T03:26:20.446Z,67.12
2022-09-14T03:28:51.875Z,67.50
2022-09-14T03:31:18.895Z,66.82
2022-09-14T03:33:45.732Z,67.21
2022-09-14T03:36:17.559Z,67.54
2022-09-14T03:38:50.058Z,67.58
2022-09-14T03:41:17.420Z,67.11
2022-09-14T03:43:44.848Z,67.40
2022-09-14T03:46:17.811Z,67.46
2022-09-14T03:48:44.851Z,67.19
2022-09-14T03:51:14.244Z,67.54
2022-09-14T03:53:41.922Z,67.26
2022-09-14T03:56:11.532Z,67.40
2022-09-14T03:58:38.530Z,67.29
2022-09-14T04:01:09.928Z,67.83
2022-09-14T04:03:37.357Z,67.97
2022-09-14T04:06:05.477Z,68.00
2022-09-14T04:08:34.767Z,68.41
2022-09-14T04:11:06.790Z,68.33
2022-09-14T04:13:33.632Z,68.28
2022-09-14T04:16:01.299Z,68.51
2022-09-14T04:18:28.084Z,68.62
2022-09-14T04:20:56.672Z,68.32
2022-09-14T04:23:23.348Z,68.41
2022-09-14T04:25:49.947Z,68.36
2022-09-14T04:28:20.502Z,68.46
2022-09-14T04:31:01.462Z,69.89
2022-09-14T04:33:33.547Z,69.61
2022-09-14T04:36:04.676Z,69.53
2022-09-14T04:38:32.942Z,69.20
2022-09-14T04:40:59.868Z,68.65
2022-09-14T04:43:28.191Z,68.80
2022-09-14T04:46:02.630Z,69.97
2022-09-14T04:48:34.063Z,69.17
2022-09-14T04:51:07.724Z,70.37
2022-09-14T04:53:36.187Z,69.49
2022-09-14T04:56:04.780Z,69.48
2022-09-14T04:58:32.910Z,69.44
2022-09-14T05:01:04.132Z,72.18
2022-09-14T05:03:30.671Z,69.41
2022-09-14T05:06:02.823Z,70.09
2022-09-14T05:08:29.570Z,69.47
2022-09-14T05:10:57.313Z,69.69
2022-09-14T05:13:24.119Z,69.38
2022-09-14T05:15:51.367Z,69.42
2022-09-14T05:18:21.284Z,69.46
2022-09-14T05:20:47.939Z,69.99
2022-09-14T05:23:14.588Z,70.10
2022-09-14T05:25:41.095Z,70.04
2022-09-14T05:28:08.762Z,69.80
2022-09-14T05:30:40.579Z,70.03
2022-09-14T05:33:07.156Z,70.07
2022-09-14T05:35:34.757Z,69.93
2022-09-14T05:38:02.523Z,69.92
2022-09-14T05:40:29.088Z,70.60
2022-09-14T05:42:57.319Z,70.53
2022-09-14T05:45:23.808Z,70.14
2022-09-14T05:47:50.416Z,70.48
2022-09-14T05:50:17.017Z,70.44
2022-09-14T05:52:43.690Z,70.41
2022-09-14T05:55:10.513Z,70.61
2022-09-14T05:57:37.082Z,70.75
2022-09-14T06:00:04.875Z,70.92
2022-09-14T06:02:31.668Z,70.63
2022-09-14T06:04:58.335Z,70.78
2022-09-14T06:07:25.009Z,70.78
2022-09-14T06:09:52.641Z,70.95
2022-09-14T06:12:19.377Z,71.03
2022-09-14T06:14:45.877Z,71.23
2022-09-14T06:17:13.689Z,71.38
2022-09-14T06:19:40.175Z,71.39
2022-09-14T06:22:07.122Z,71.57
2022-09-14T06:24:33.758Z,71.35
2022-09-14T06:27:00.289Z,71.49
2022-09-14T06:29:27.214Z,71.41
2022-09-14T06:31:54.261Z,71.49
2022-09-14T06:34:20.829Z,71.10
2022-09-14T06:36:47.587Z,71.58
2022-09-14T06:39:14.190Z,71.82
2022-09-14T06:41:40.695Z,71.71
2022-09-14T06:44:07.332Z,71.69
2022-09-14T06:46:35.598Z,71.51
2022-09-14T06:49:10.349Z,71.66
2022-09-14T06:51:41.997Z,71.73
2022-09-14T06:54:10.139Z,71.84
2022-09-14T06:56:39.506Z,71.69
2022-09-14T06:59:07.819Z,72.01
2022-09-14T07:01:35.247Z,71.77
2022-09-14T07:04:02.301Z,71.78
2022-09-14T07:06:32.668Z,71.88
2022-09-14T07:08:59.472Z,72.09
2022-09-14T07:11:28.032Z,71.96
2022-09-14T07:13:58.857Z,71.92
2022-09-14T07:16:28.288Z,72.02
2022-09-14T07:19:01.832Z,72.32
2022-09-14T07:21:29.923Z,72.01
2022-09-14T07:23:56.818Z,72.38
2022-09-14T07:26:27.229Z,72.57
2022-09-14T07:28:56.984Z,72.23
2022-09-14T07:31:26.722Z,72.46
2022-09-14T07:33:59.387Z,72.65
2022-09-14T07:36:29.518Z,72.21
2022-09-14T07:38:59.640Z,72.61
2022-09-14T07:41:28.859Z,72.30
2022-09-14T07:44:01.141Z,72.18
2022-09-14T07:46:29.861Z,72.03
2022-09-14T07:48:58.829Z,72.12
2022-09-14T07:51:26.950Z,72.11
2022-09-14T07:53:53.830Z,72.52
2022-09-14T07:56:21.938Z,72.07
2022-09-14T07:58:54.000Z,72.52
2022-09-14T08:01:23.357Z,72.18
2022-09-14T08:03:50.666Z,72.63
2022-09-14T08:06:23.598Z,72.95
2022-09-14T08:08:52.560Z,72.14
2022-09-14T08:11:31.865Z,72.16
2022-09-14T08:14:06.427Z,72.88
2022-09-14T08:16:35.111Z,72.59
2022-09-14T08:19:07.970Z,72.57
2022-09-14T08:21:35.874Z,72.26
2022-09-14T08:24:04.232Z,72.62
2022-09-14T08:26:34.032Z,72.27
2022-09-14T08:29:00.893Z,72.24
2022-09-14T08:31:28.780Z,72.54
2022-09-14T08:34:01.371Z,72.32
2022-09-14T08:36:33.424Z,72.62
2022-09-14T08:39:00.991Z,72.68
2022-09-14T08:41:44.498Z,72.64
2022-09-14T08:44:21.709Z,72.87
2022-09-14T08:46:54.845Z,72.45
2022-09-14T08:49:39.976Z,72.92
2022-09-14T08:52:21.018Z,72.65
2022-09-14T08:54:56.100Z,72.52
2022-09-14T09:11:40.850Z,72.43
2022-09-14T09:14:20.799Z,72.77
2022-09-14T09:16:51.594Z,72.47
2022-09-14T09:19:28.409Z,72.56
2022-09-14T09:21:56.141Z,72.43
2022-09-14T09:24:37.514Z,71.79
2022-09-14T09:27:14.058Z,72.43
2022-09-14T09:29:41.401Z,72.23
2022-09-14T09:32:16.840Z,72.05
2022-09-14T09:34:43.478Z,72.26
2022-09-14T09:37:21.499Z,72.18
2022-09-14T09:39:48.749Z,72.35
2022-09-14T09:42:24.587Z,72.06
2022-09-14T09:45:03.658Z,72.09
2022-09-14T09:47:39.399Z,72.25
2022-09-14T09:50:21.615Z,71.78
2022-09-14T09:52:57.459Z,72.44
2022-09-14T09:55:28.311Z,72.28
2022-09-14T09:57:55.215Z,72.26
2022-09-14T10:00:27.860Z,72.20
2022-09-14T10:02:55.803Z,72.27
2022-09-14T10:05:32.968Z,72.11
2022-09-14T10:08:02.410Z,72.02
2022-09-14T10:10:44.078Z,71.37
2022-09-14T10:13:29.092Z,71.10
2022-09-14T10:16:11.794Z,70.55
2022-09-14T10:18:48.990Z,71.49
2022-09-14T10:21:18.021Z,71.59
2022-09-14T10:23:45.618Z,71.42
2022-09-14T10:26:18.943Z,71.19
2022-09-14T10:28:50.760Z,70.87
2022-09-14T10:31:19.822Z,71.07
2022-09-14T10:33:48.270Z,71.32
2022-09-14T10:36:30.694Z,70.97
2022-09-14T10:39:26.564Z,70.85
2022-09-14T10:42:20.778Z,70.92
2022-09-14T10:45:00.380Z,71.07
2022-09-14T10:48:13.212Z,70.69
2022-09-14T10:50:54.657Z,70.75
2022-09-14T10:53:57.461Z,70.25
2022-09-14T10:56:33.655Z,70.59
2022-09-14T10:59:28.893Z,70.18
2022-09-14T11:02:14.491Z,69.75
2022-09-14T11:04:49.000Z,69.54
2022-09-14T11:07:47.835Z,69.71
2022-09-14T11:10:30.161Z,70.14
2022-09-14T11:13:07.606Z,69.40
2022-09-14T11:15:58.578Z,68.94
2022-09-14T11:18:38.693Z,68.70
2022-09-14T11:21:42.625Z,67.98
2022-09-14T11:24:38.442Z,68.35
2022-09-14T11:27:16.292Z,68.39
2022-09-14T11:29:55.666Z,67.16
2022-09-14T11:32:45.894Z,68.40
2022-09-14T11:35:19.752Z,68.35
2022-09-14T11:38:10.897Z,67.71
2022-09-14T11:40:45.648Z,68.41
2022-09-14T11:43:33.204Z,68.16
2022-09-14T11:46:08.682Z,67.02
2022-09-14T11:49:03.740Z,66.38
2022-09-14T11:51:42.093Z,66.43
2022-09-14T11:54:22.572Z,65.41
2022-09-14T11:56:55.957Z,67.51
2022-09-14T11:59:44.642Z,65.67
2022-09-14T12:02:23.249Z,66.31
2022-09-14T12:05:11.294Z,65.60
2022-09-14T12:07:46.044Z,66.92
2022-09-14T12:10:18.038Z,67.06
2022-09-14T12:13:09.279Z,64.95
2022-09-14T12:15:37.269Z,66.57
2022-09-14T12:18:13.516Z,66.54
2022-09-14T12:21:05.505Z,64.95
2022-09-14T12:23:42.411Z,67.03
2022-09-14T12:26:20.362Z,65.83
2022-09-14T12:28:49.353Z,66.22
2022-09-14T12:31:38.449Z,65.03
2022-09-14T12:34:11.420Z,66.35
2022-09-14T12:36:40.465Z,65.62
2022-09-14T12:39:20.416Z,65.96
2022-09-14T12:41:52.254Z,66.51
2022-09-14T12:44:38.686Z,65.53
2022-09-14T12:47:29.189Z,66.09
2022-09-14T12:50:01.070Z,65.71
2022-09-14T12:52:39.096Z,65.82
2022-09-14T12:55:32.095Z,66.24
2022-09-14T12:58:09.490Z,64.99
2022-09-14T13:01:06.485Z,65.13
2022-09-14T13:03:56.212Z,64.60
2022-09-14T13:06:26.984Z,65.03
2022-09-14T13:08:56.578Z,65.19
2022-09-14T13:11:31.014Z,64.63
2022-09-14T13:13:59.275Z,65.86
2022-09-14T13:16:38.798Z,63.20
2022-09-14T13:19:18.761Z,64.91
2022-09-14T13:21:50.660Z,63.71
2022-09-14T13:24:48.661Z,59.14
2022-09-14T13:27:22.005Z,62.36
2022-09-14T13:29:57.161Z,63.99
2022-09-14T13:32:25.259Z,63.65
2022-09-14T13:34:52.876Z,63.37
2022-09-14T13:37:21.136Z,62.21
2022-09-14T13:39:54.629Z,60.09
2022-09-14T13:42:22.836Z,62.84
2022-09-14T13:44:52.894Z,62.69
2022-09-14T13:47:22.740Z,60.79
2022-09-14T13:49:52.142Z,60.50
2022-09-14T13:52:21.100Z,61.47
2022-09-14T13:54:53.920Z,60.15
2022-09-14T13:57:23.732Z,61.00
2022-09-14T14:00:16.312Z,59.49
2022-09-14T14:02:50.650Z,60.60
2022-09-14T14:05:35.246Z,58.21
2022-09-14T14:08:04.900Z,59.24
2022-09-14T14:10:33.627Z,58.75
2022-09-14T14:13:02.836Z,58.97
2022-09-14T14:15:42.217Z,57.20
2022-09-14T14:18:40.392Z,58.01
2022-09-14T14:21:26.878Z,57.87
2022-09-14T14:24:29.753Z,57.85
2022-09-14T14:26:58.411Z,57.63
2022-09-14T14:29:25.813Z,57.91
2022-09-14T14:31:54.989Z,57.92
2022-09-14T14:34:29.513Z,57.74
2022-09-14T14:36:56.489Z,57.90
2022-09-14T14:39:25.244Z,57.89
2022-09-14T14:41:52.865Z,57.26
2022-09-14T14:44:23.617Z,57.48
2022-09-14T14:46:51.470Z,57.45
2022-09-14T14:49:20.442Z,57.84
2022-09-14T14:51:48.206Z,57.75
2022-09-14T14:54:18.756Z,57.49
2022-09-14T14:56:49.727Z,57.40
2022-09-14T14:59:36.520Z,57.64
2022-09-14T15:02:05.032Z,57.28
2022-09-14T15:04:33.210Z,57.40
2022-09-14T15:06:59.881Z,57.82
2022-09-14T15:09:29.695Z,56.56
2022-09-14T15:11:56.263Z,57.26
2022-09-14T15:14:27.171Z,56.94
2022-09-14T15:16:58.188Z,57.40
2022-09-14T15:19:25.784Z,57.51
2022-09-14T15:21:52.325Z,57.22
2022-09-14T15:24:18.950Z,57.38
2022-09-14T15:26:45.492Z,57.21
2022-09-14T15:29:17.694Z,56.71
2022-09-14T15:31:44.451Z,56.83
2022-09-14T15:34:10.979Z,56.41
2022-09-14T15:36:52.486Z,55.64
2022-09-14T15:39:25.009Z,56.00
2022-09-14T15:41:52.683Z,56.00
2022-09-14T15:44:22.356Z,56.15
2022-09-14T15:46:49.435Z,56.12
2022-09-14T15:49:21.973Z,56.43
2022-09-14T15:51:52.394Z,56.52
2022-09-14T15:54:23.174Z,56.48
2022-09-14T15:56:52.120Z,56.63
2022-09-14T15:59:19.585Z,56.81
2022-09-14T16:01:48.276Z,56.71
2022-09-14T16:04:16.743Z,56.63
2022-09-14T16:06:43.596Z,56.80
2022-09-14T16:09:12.041Z,56.50
2022-09-14T16:11:39.752Z,56.50
2022-09-14T16:14:07.864Z,56.52
2022-09-14T16:16:35.942Z,56.44
2022-09-14T16:19:07.607Z,55.81
2022-09-14T16:21:35.210Z,56.11
2022-09-14T16:24:07.322Z,55.87
2022-09-14T16:26:36.943Z,55.35
2022-09-14T16:29:05.789Z,55.87
2022-09-14T16:31:34.679Z,55.81
2022-09-14T16:34:27.596Z,55.74
2022-09-14T16:36:55.421Z,55.36
2022-09-14T16:39:27.178Z,55.81
2022-09-14T16:41:57.261Z,55.45
2022-09-14T16:44:27.727Z,55.46
2022-09-14T16:46:57.545Z,55.64
2022-09-14T16:49:27.578Z,55.93
2022-09-14T16:51:55.606Z,55.93
2022-09-14T16:54:24.481Z,56.08
2022-09-14T16:56:51.318Z,56.41
2022-09-14T16:59:19.373Z,56.36
2022-09-14T17:01:50.783Z,56.16
2022-09-14T17:04:21.889Z,56.26
2022-09-14T17:06:50.450Z,56.55
2022-09-14T17:09:26.716Z,56.87
2022-09-14T17:11:54.722Z,56.63
2022-09-14T17:14:24.680Z,56.84
2022-09-14T17:16:51.722Z,57.20
2022-09-14T17:19:18.598Z,57.01
2022-09-14T17:21:47.751Z,57.48
2022-09-14T17:24:18.419Z,57.54
2022-09-14T17:26:45.648Z,57.73
2022-09-14T17:29:12.350Z,57.78
2022-09-14T17:31:42.059Z,57.97
2022-09-14T17:34:10.621Z,57.96
2022-09-14T17:36:38.218Z,57.72
2022-09-14T17:39:11.368Z,57.78
2022-09-14T17:41:39.215Z,58.08
2022-09-14T17:44:07.226Z,58.13
2022-09-14T17:46:41.472Z,58.23
2022-09-14T17:49:14.024Z,58.46
2022-09-14T17:51:45.250Z,58.59
2022-09-14T17:54:14.447Z,58.67
2022-09-14T17:56:40.958Z,58.79
2022-09-14T17:59:14.447Z,58.61
2022-09-14T18:01:41.273Z,58.57
2022-09-14T18:04:12.170Z,58.86
2022-09-14T18:06:44.851Z,59.06
2022-09-14T18:09:16.778Z,58.88
2022-09-14T18:11:45.676Z,59.20
2022-09-14T18:14:14.597Z,59.02
2022-09-14T18:16:43.043Z,59.15
2022-09-14T18:19:10.116Z,58.56
2022-09-14T18:21:36.845Z,58.98
2022-09-14T18:24:03.935Z,59.21
2022-09-14T18:26:30.845Z,58.97
2022-09-14T18:28:58.809Z,59.17
2022-09-14T18:31:27.095Z,58.92
2022-09-14T18:34:01.485Z,59.43
2022-09-14T18:36:30.148Z,59.11
2022-09-14T18:38:58.070Z,58.93
2022-09-14T18:41:25.389Z,59.30
2022-09-14T18:43:54.428Z,59.38
2022-09-14T18:46:25.917Z,59.45
2022-09-14T18:48:56.707Z,59.51
2022-09-14T18:51:23.614Z,59.54
2022-09-14T18:54:05.891Z,59.80
2022-09-14T18:56:36.167Z,59.80
2022-09-14T18:59:04.580Z,59.79
2022-09-14T19:01:32.577Z,60.21
2022-09-14T19:04:02.847Z,60.14
2022-09-14T19:06:29.589Z,59.91
2022-09-14T19:08:56.586Z,60.12
2022-09-14T19:11:26.855Z,60.33
2022-09-14T19:14:09.362Z,60.88
2022-09-14T19:16:40.902Z,60.62
2022-09-14T19:19:08.907Z,60.99
2022-09-14T19:21:35.526Z,61.52
2022-09-14T19:24:05.177Z,61.12
2022-09-14T19:26:42.595Z,61.23
2022-09-14T19:29:11.770Z,61.16
2022-09-14T19:31:38.528Z,61.23
2022-09-14T19:34:05.777Z,61.56
2022-09-14T19:36:34.864Z,61.76
2022-09-14T19:39:02.668Z,61.83
2022-09-14T19:41:32.176Z,61.79
2022-09-14T19:43:59.408Z,61.83
2022-09-14T19:46:26.719Z,61.72
2022-09-14T19:48:53.924Z,61.80
2022-09-14T19:51:25.216Z,62.06
2022-09-14T19:53:54.323Z,61.85
2022-09-14T19:56:25.407Z,62.38
2022-09-14T19:58:54.304Z,62.22
2022-09-14T20:01:23.121Z,62.10
2022-09-14T20:03:50.497Z,62.24
2022-09-14T20:06:21.161Z,62.59
2022-09-14T20:08:49.551Z,62.31
2022-09-14T20:11:20.066Z,62.37
2022-09-14T20:13:50.782Z,62.79
2022-09-14T20:16:20.692Z,62.81
2022-09-14T20:18:49.045Z,62.62
2022-09-14T20:21:18.728Z,62.99
2022-09-14T20:24:11.491Z,62.79
2022-09-14T20:26:33.052Z,62.94
2022-09-14T20:29:01.264Z,62.73
2022-09-14T20:31:29.440Z,62.80
2022-09-14T20:33:57.417Z,63.56
2022-09-14T20:36:28.260Z,63.93
2022-09-14T20:38:57.296Z,64.53
2022-09-14T20:41:26.736Z,64.77
2022-09-14T20:43:54.172Z,64.56
2022-09-14T20:46:25.037Z,65.18
2022-09-14T20:48:52.669Z,65.11
2022-09-14T20:51:20.882Z,65.43
2022-09-14T20:53:48.549Z,65.93
2022-09-14T20:56:19.883Z,66.33
2022-09-14T20:58:47.241Z,65.39
2022-09-14T21:01:19.458Z,66.02
2022-09-14T21:03:47.936Z,65.50
2022-09-14T21:06:18.649Z,65.95
2022-09-14T21:08:45.698Z,65.13
2022-09-14T21:11:16.774Z,65.23
2022-09-14T21:13:44.271Z,65.36
2022-09-14T21:16:16.422Z,65.74
2022-09-14T21:18:44.592Z,65.53
2022-09-14T21:21:14.423Z,65.84
2022-09-14T21:23:41.601Z,65.81
2022-09-14T21:26:09.810Z,66.04
2022-09-14T21:28:37.839Z,65.98
2022-09-14T21:31:04.333Z,66.24
2022-09-14T21:33:33.703Z,66.44
2022-09-14T21:36:08.262Z,67.23
2022-09-14T21:38:37.215Z,66.86
2022-09-14T21:41:07.567Z,67.37
2022-09-14T21:43:38.855Z,68.03
2022-09-14T21:46:06.313Z,67.31
2022-09-14T21:48:33.399Z,66.88
2022-09-14T21:51:07.444Z,66.86
2022-09-14T21:53:34.602Z,66.10
2022-09-14T21:56:06.652Z,65.77
2022-09-14T21:58:33.222Z,65.69
2022-09-14T22:01:01.341Z,66.02
2022-09-14T22:03:28.364Z,66.31
2022-09-14T22:06:02.186Z,67.41
2022-09-14T22:08:31.211Z,67.33
2022-09-14T22:11:12.595Z,68.28
2022-09-14T22:13:40.203Z,67.37
2022-09-14T22:16:11.555Z,68.40
2022-09-14T22:18:39.778Z,67.96
2022-09-14T22:21:07.039Z,68.58
2022-09-14T22:23:35.029Z,68.50
2022-09-14T22:26:07.375Z,69.64
2022-09-14T22:28:33.883Z,69.09
2022-09-14T22:31:02.060Z,69.32
2022-09-14T22:33:29.048Z,68.93
2022-09-14T22:35:57.872Z,68.91
2022-09-14T22:38:26.292Z,68.61
2022-09-14T22:40:58.512Z,69.56
2022-09-14T22:43:26.238Z,68.15
2022-09-14T22:45:53.059Z,68.62
2022-09-14T22:48:20.660Z,68.40
2022-09-14T22:50:49.321Z,68.89
2022-09-14T22:53:16.815Z,68.58
2022-09-14T22:55:44.836Z,68.49
2022-09-14T22:58:14.075Z,68.64
2022-09-14T23:00:46.555Z,68.93
2022-09-14T23:03:16.078Z,69.25
2022-09-14T23:05:55.574Z,69.28
2022-09-14T23:08:22.424Z,69.00
2022-09-14T23:10:50.094Z,69.14
2022-09-14T23:13:17.306Z,69.34
2022-09-14T23:15:44.184Z,69.36
2022-09-14T23:18:11.039Z,69.18
2022-09-14T23:20:39.047Z,69.39
2022-09-14T23:23:05.910Z,69.25
2022-09-14T23:25:36.711Z,69.24
2022-09-14T23:28:05.265Z,69.76
2022-09-14T23:30:32.696Z,69.36
2022-09-14T23:33:00.089Z,69.59
2022-09-14T23:35:30.094Z,69.72
2022-09-14T23:37:56.965Z,69.60
2022-09-14T23:40:23.948Z,69.86
2022-09-14T23:42:50.812Z,70.15
2022-09-14T23:45:17.613Z,69.73
2022-09-14T23:47:45.976Z,69.67
2022-09-14T23:50:12.631Z,70.01
2022-09-14T23:52:39.281Z,70.31
2022-09-14T23:55:08.798Z,70.12
2022-09-14T23:57:36.594Z,70.56
